createdAt,value
2018-08-13T00:01:28.899Z,80.60
2018-08-13T00:03:56.780Z,81.40
2018-08-13T00:06:24.619Z,80.90
2018-08-13T00:08:52.477Z,81.90
2018-08-13T00:11:20.394Z,81.60
2018-08-13T00:13:48.307Z,82.40
2018-08-13T00:16:16.108Z,82.00
2018-08-13T00:18:43.996Z,78.90
2018-08-13T00:21:11.915Z,78.70
2018-08-13T00:23:39.741Z,82.30
2018-08-13T00:26:07.579Z,82.30
2018-08-13T00:28:35.436Z,83.30
2018-08-13T00:31:03.332Z,83.20
2018-08-13T00:33:31.189Z,84.70
2018-08-13T00:35:58.955Z,85.90
2018-08-13T00:38:26.748Z,83.90
2018-08-13T00:40:54.608Z,85.10
2018-08-13T00:43:22.447Z,86.10
2018-08-13T00:45:50.328Z,85.80
2018-08-13T00:48:18.127Z,84.30
2018-08-13T00:50:45.976Z,84.50
2018-08-13T00:53:13.879Z,80.00
2018-08-13T00:55:41.724Z,82.20
2018-08-13T00:58:09.524Z,86.70
2018-08-13T01:00:37.442Z,89.10
2018-08-13T01:03:06.431Z,90.20
2018-08-13T01:05:34.220Z,90.20
2018-08-13T01:08:02.091Z,90.10
2018-08-13T01:10:29.867Z,90.20
2018-08-13T01:12:57.653Z,88.80
2018-08-13T01:15:25.539Z,89.60
2018-08-13T01:17:53.387Z,88.90
2018-08-13T01:20:21.583Z,88.10
2018-08-13T01:22:49.466Z,88.10
2018-08-13T01:25:19.318Z,88.00
2018-08-13T01:27:47.127Z,88.10
2018-08-13T01:30:16.667Z,86.50
2018-08-13T01:32:44.515Z,88.30
2018-08-13T01:35:12.385Z,88.40
2018-08-13T01:37:40.219Z,87.60
2018-08-13T01:40:09.763Z,90.00
2018-08-13T01:42:37.797Z,89.80
2018-08-13T01:45:08.583Z,88.10
2018-08-13T01:47:36.508Z,89.90
2018-08-13T01:50:07.271Z,86.60
2018-08-13T01:52:35.151Z,89.30
2018-08-13T01:55:03.471Z,90.30
2018-08-13T01:57:31.303Z,89.80
2018-08-13T01:59:59.151Z,89.30
2018-08-13T02:02:27.011Z,90.40
2018-08-13T02:04:54.792Z,88.20
2018-08-13T02:07:22.727Z,90.20
2018-08-13T02:09:50.652Z,90.60
2018-08-13T02:12:18.599Z,85.30
2018-08-13T02:14:46.364Z,90.20
2018-08-13T02:17:14.168Z,87.20
2018-08-13T02:19:41.932Z,90.40
2018-08-13T02:22:09.888Z,88.50
2018-08-13T02:24:37.660Z,91.20
2018-08-13T02:27:05.574Z,91.00
2018-08-13T02:29:33.419Z,90.60
2018-08-13T02:32:01.236Z,91.20
2018-08-13T02:34:29.048Z,91.10
2018-08-13T02:36:56.920Z,91.00
2018-08-13T02:39:24.792Z,91.20
2018-08-13T02:41:52.583Z,91.00
2018-08-13T02:44:20.456Z,91.20
2018-08-13T02:46:48.271Z,91.50
2018-08-13T02:49:16.131Z,90.40
2018-08-13T02:51:44.024Z,90.80
2018-08-13T02:54:11.913Z,90.80
2018-08-13T02:56:39.807Z,91.10
2018-08-13T02:59:07.651Z,90.50
2018-08-13T03:01:35.573Z,90.90
2018-08-13T03:04:03.687Z,91.00
2018-08-13T03:06:31.598Z,91.70
2018-08-13T03:08:59.512Z,91.20
2018-08-13T03:11:27.253Z,91.20
2018-08-13T03:13:55.121Z,90.90
2018-08-13T03:16:24.226Z,90.90
2018-08-13T03:18:52.374Z,90.70
2018-08-13T03:21:20.280Z,91.10
2018-08-13T03:23:48.196Z,91.20
2018-08-13T03:26:16.020Z,91.40
2018-08-13T03:28:43.817Z,90.60
2018-08-13T03:31:11.635Z,91.40
2018-08-13T03:33:39.523Z,91.40
2018-08-13T03:36:07.751Z,91.80
2018-08-13T03:38:35.639Z,92.30
2018-08-13T03:41:03.595Z,92.50
2018-08-13T03:43:31.441Z,92.20
2018-08-13T03:45:59.300Z,92.70
2018-08-13T03:48:27.142Z,92.80
2018-08-13T03:50:55.002Z,92.90
2018-08-13T03:53:22.964Z,92.60
2018-08-13T03:55:50.804Z,92.50
2018-08-13T03:58:18.715Z,92.00
2018-08-13T04:00:46.597Z,91.80
2018-08-13T04:03:14.425Z,92.30
2018-08-13T04:05:42.306Z,92.00
2018-08-13T04:08:10.182Z,92.20
2018-08-13T04:10:38.104Z,92.50
2018-08-13T04:13:05.915Z,92.70
2018-08-13T04:15:33.824Z,92.50
2018-08-13T04:18:01.620Z,92.00
2018-08-13T04:20:29.493Z,92.60
2018-08-13T04:22:57.359Z,92.40
2018-08-13T04:25:25.299Z,91.60
2018-08-13T04:27:53.155Z,91.00
2018-08-13T04:30:20.977Z,91.20
2018-08-13T04:32:48.821Z,90.50
2018-08-13T04:35:16.647Z,90.60
2018-08-13T04:37:45.415Z,90.50
2018-08-13T04:40:15.384Z,90.30
2018-08-13T04:42:44.178Z,89.00
2018-08-13T04:45:12.115Z,89.20
2018-08-13T04:47:42.802Z,87.20
2018-08-13T04:50:10.619Z,86.60
2018-08-13T04:52:38.475Z,87.60
2018-08-13T04:55:07.945Z,85.40
2018-08-13T04:57:35.768Z,86.00
2018-08-13T05:00:04.918Z,85.20
2018-08-13T05:02:32.723Z,84.20
2018-08-13T05:05:00.578Z,85.50
2018-08-13T05:07:28.523Z,86.40
2018-08-13T05:09:56.271Z,86.70
2018-08-13T05:12:24.097Z,84.90
2018-08-13T05:14:51.991Z,84.00
2018-08-13T05:17:19.951Z,82.40
2018-08-13T05:19:47.755Z,81.70
2018-08-13T05:22:15.631Z,80.80
2018-08-13T05:24:43.792Z,78.00
2018-08-13T05:27:11.651Z,77.70
2018-08-13T05:29:39.449Z,77.00
2018-08-13T05:32:07.724Z,77.50
2018-08-13T05:34:35.532Z,77.20
2018-08-13T05:37:03.452Z,76.80
2018-08-13T05:39:31.324Z,76.40
2018-08-13T05:41:59.159Z,76.10
2018-08-13T05:44:27.018Z,74.70
2018-08-13T05:46:54.904Z,73.80
2018-08-13T05:49:22.811Z,73.20
2018-08-13T05:51:50.756Z,70.50
2018-08-13T05:54:18.831Z,69.40
2018-08-13T05:56:46.728Z,68.10
2018-08-13T05:59:14.643Z,67.50
2018-08-13T06:01:42.636Z,67.50
2018-08-13T06:04:10.455Z,68.20
2018-08-13T06:06:38.219Z,67.80
2018-08-13T06:09:10.594Z,67.90
2018-08-13T06:11:38.492Z,68.00
2018-08-13T06:14:06.443Z,68.00
2018-08-13T06:16:34.295Z,68.20
2018-08-13T06:19:02.211Z,68.50
2018-08-13T06:21:30.076Z,68.70
2018-08-13T06:23:57.944Z,69.40
2018-08-13T06:26:25.760Z,69.60
2018-08-13T06:28:53.601Z,68.70
2018-08-13T06:31:21.439Z,68.60
2018-08-13T06:33:49.290Z,72.80
2018-08-13T06:36:17.159Z,90.10
2018-08-13T06:38:45.048Z,88.60
2018-08-13T06:41:12.955Z,92.30
2018-08-13T06:43:40.795Z,91.10
2018-08-13T06:46:08.707Z,92.70
2018-08-13T06:48:36.602Z,90.70
2018-08-13T06:51:04.503Z,91.00
2018-08-13T06:53:33.647Z,92.20
2018-08-13T06:56:01.456Z,92.20
2018-08-13T06:58:29.311Z,91.70
2018-08-13T07:00:57.089Z,91.20
2018-08-13T07:03:24.949Z,92.70
2018-08-13T07:05:52.783Z,90.30
2018-08-13T07:08:20.623Z,90.90
2018-08-13T07:10:48.424Z,92.30
2018-08-13T07:13:16.259Z,92.10
2018-08-13T07:15:44.141Z,90.40
2018-08-13T07:18:11.871Z,90.60
2018-08-13T07:20:39.708Z,86.90
2018-08-13T07:23:07.663Z,92.10
2018-08-13T07:25:35.535Z,92.20
2018-08-13T07:28:03.498Z,91.60
2018-08-13T07:30:31.315Z,88.20
2018-08-13T07:32:59.082Z,90.20
2018-08-13T07:35:26.943Z,93.50
2018-08-13T07:37:54.991Z,91.20
2018-08-13T07:40:22.859Z,92.50
2018-08-13T07:42:50.731Z,96.00
2018-08-13T07:45:18.962Z,95.30
2018-08-13T07:47:52.463Z,88.40
2018-08-13T07:50:20.399Z,94.90
2018-08-13T07:52:48.429Z,96.50
2018-08-13T07:55:19.574Z,97.80
2018-08-13T07:57:47.586Z,96.90
2018-08-13T08:00:17.771Z,95.10
2018-08-13T08:02:52.586Z,98.60
2018-08-13T08:05:22.237Z,98.30
2018-08-13T08:07:50.246Z,96.10
2018-08-13T08:10:24.121Z,97.40
2018-08-13T08:12:52.219Z,99.60
2018-08-13T08:15:20.177Z,98.70
2018-08-13T08:17:49.361Z,95.00
2018-08-13T08:20:17.342Z,96.60
2018-08-13T08:22:45.195Z,94.80
2018-08-13T08:25:16.688Z,95.80
2018-08-13T08:27:44.976Z,96.70
2018-08-13T08:30:13.340Z,95.20
2018-08-13T08:32:41.309Z,97.90
2018-08-13T08:35:11.215Z,94.60
2018-08-13T08:37:39.689Z,99.90
2018-08-13T08:40:13.010Z,95.60
2018-08-13T08:42:40.999Z,95.80
2018-08-13T08:45:14.379Z,95.20
2018-08-13T08:47:42.761Z,95.30
2018-08-13T08:50:10.768Z,97.50
2018-08-13T08:52:38.734Z,93.50
2018-08-13T08:55:07.527Z,97.10
2018-08-13T08:57:35.415Z,96.80
2018-08-13T09:00:04.370Z,99.40
2018-08-13T09:02:32.182Z,96.40
2018-08-13T09:05:00.037Z,99.00
2018-08-13T09:07:27.869Z,96.70
2018-08-13T09:09:55.748Z,98.70
2018-08-13T09:12:23.650Z,98.30
2018-08-13T09:14:51.542Z,99.30
2018-08-13T09:17:19.414Z,98.00
2018-08-13T09:20:04.602Z,93.20
2018-08-13T09:22:49.617Z,99.90
2018-08-13T09:25:35.448Z,97.10
2018-08-13T09:28:20.531Z,95.90
2018-08-13T09:31:05.668Z,96.80
2018-08-13T09:33:50.840Z,96.20
2018-08-13T09:36:18.755Z,98.60
2018-08-13T09:38:46.648Z,98.10
2018-08-13T09:41:14.463Z,99.20
2018-08-13T09:43:42.284Z,98.50
2018-08-13T09:46:10.213Z,96.20
2018-08-13T09:48:37.992Z,96.20
2018-08-13T09:51:05.903Z,99.40
2018-08-13T09:53:33.700Z,99.90
2018-08-13T09:56:01.539Z,99.20
2018-08-13T09:58:29.409Z,99.10
2018-08-13T10:01:02.871Z,97.60
2018-08-13T10:03:30.748Z,94.70
2018-08-13T10:05:58.626Z,97.60
2018-08-13T10:08:26.512Z,96.70
2018-08-13T10:10:54.449Z,95.40
2018-08-13T10:13:22.256Z,96.50
2018-08-13T10:15:50.023Z,93.60
2018-08-13T10:18:17.908Z,99.20
2018-08-13T10:20:45.754Z,97.30
2018-08-13T10:23:13.667Z,93.00
2018-08-13T10:25:41.638Z,96.90
2018-08-13T10:28:09.585Z,99.30
2018-08-13T10:30:37.388Z,96.80
2018-08-13T10:33:05.775Z,95.30
2018-08-13T10:35:33.676Z,94.70
2018-08-13T10:38:01.592Z,95.50
2018-08-13T10:40:29.440Z,97.60
2018-08-13T10:42:57.367Z,92.20
2018-08-13T10:45:25.245Z,94.40
2018-08-13T10:47:53.104Z,95.90
2018-08-13T10:50:20.988Z,98.00
2018-08-13T10:52:48.967Z,91.80
2018-08-13T10:55:16.772Z,97.30
2018-08-13T10:57:44.726Z,96.70
2018-08-13T11:00:15.832Z,93.60
2018-08-13T11:02:43.949Z,97.50
2018-08-13T11:05:12.819Z,96.10
2018-08-13T11:07:40.766Z,97.30
2018-08-13T11:10:13.306Z,97.10
2018-08-13T11:12:41.148Z,95.70
2018-08-13T11:15:15.990Z,97.40
2018-08-13T11:17:43.899Z,98.20
2018-08-13T11:20:11.780Z,95.90
2018-08-13T11:22:40.491Z,96.60
2018-08-13T11:25:10.241Z,97.40
2018-08-13T11:27:38.079Z,97.00
2018-08-13T11:30:11.787Z,98.80
2018-08-13T11:32:39.646Z,98.50
2018-08-13T11:35:07.875Z,96.20
2018-08-13T11:37:36.119Z,95.50
2018-08-13T11:40:08.920Z,97.10
2018-08-13T11:42:36.867Z,98.10
2018-08-13T11:45:05.251Z,97.40
2018-08-13T11:47:33.068Z,98.30
2018-08-13T11:50:00.894Z,97.40
2018-08-13T11:52:28.799Z,99.90
2018-08-13T11:54:56.572Z,97.20
2018-08-13T11:57:24.525Z,98.90
2018-08-13T11:59:52.424Z,96.00
2018-08-13T12:02:20.304Z,99.50
2018-08-13T12:04:48.169Z,96.00
2018-08-13T12:07:16.066Z,94.90
2018-08-13T12:09:43.895Z,98.50
2018-08-13T12:12:11.809Z,98.70
2018-08-13T12:14:39.611Z,99.90
2018-08-13T12:17:07.519Z,97.60
2018-08-13T12:19:35.463Z,99.90
2018-08-13T12:22:03.247Z,98.10
2018-08-13T12:24:31.071Z,99.90
2018-08-13T12:26:58.898Z,99.90
2018-08-13T12:29:26.712Z,99.90
2018-08-13T12:31:54.591Z,99.90
2018-08-13T12:34:22.404Z,99.90
2018-08-13T12:36:54.796Z,98.20
2018-08-13T12:39:22.742Z,99.50
2018-08-13T12:41:50.531Z,99.90
2018-08-13T12:44:18.328Z,99.90
2018-08-13T12:46:46.123Z,99.90
2018-08-13T12:49:13.980Z,99.90
2018-08-13T12:51:41.836Z,99.80
2018-08-13T12:54:09.639Z,99.50
2018-08-13T12:56:37.491Z,98.00
2018-08-13T12:59:05.436Z,98.30
2018-08-13T13:01:33.324Z,97.10
2018-08-13T13:04:01.176Z,99.90
2018-08-13T13:06:29.059Z,98.70
2018-08-13T13:08:56.928Z,96.30
2018-08-13T13:11:24.962Z,99.70
2018-08-13T13:13:52.886Z,98.10
2018-08-13T13:16:20.732Z,96.30
2018-08-13T13:18:48.604Z,95.50
2018-08-13T13:21:16.407Z,95.30
2018-08-13T13:23:44.224Z,95.50
2018-08-13T13:26:12.103Z,94.30
2018-08-13T13:28:40.333Z,94.80
2018-08-13T13:31:08.307Z,95.30
2018-08-13T13:33:36.202Z,92.80
2018-08-13T13:36:04.118Z,93.50
2018-08-13T13:38:32.046Z,92.80
2018-08-13T13:40:59.924Z,93.10
2018-08-13T13:43:27.772Z,94.10
2018-08-13T13:45:55.618Z,93.50
2018-08-13T13:48:23.559Z,93.30
2018-08-13T13:50:51.591Z,92.10
2018-08-13T13:53:19.446Z,92.40
2018-08-13T13:55:47.383Z,92.30
2018-08-13T13:58:16.476Z,92.60
2018-08-13T14:00:44.436Z,93.10
2018-08-13T14:03:12.301Z,93.10
2018-08-13T14:05:40.203Z,92.70
2018-08-13T14:08:08.051Z,92.00
2018-08-13T14:10:35.942Z,91.90
2018-08-13T14:13:03.820Z,92.70
2018-08-13T14:15:31.742Z,92.00
2018-08-13T14:17:59.569Z,92.30
2018-08-13T14:20:27.498Z,91.80
2018-08-13T14:22:55.375Z,91.90
2018-08-13T14:25:23.178Z,91.30
2018-08-13T14:27:51.156Z,91.10
2018-08-13T14:30:22.877Z,90.90
2018-08-13T14:32:50.832Z,91.20
2018-08-13T14:35:20.241Z,91.40
2018-08-13T14:37:48.289Z,91.00
2018-08-13T14:40:16.122Z,88.90
2018-08-13T14:42:44.331Z,89.50
2018-08-13T14:45:13.876Z,89.30
2018-08-13T14:47:45.183Z,89.40
2018-08-13T14:50:13.481Z,89.50
2018-08-13T14:52:42.591Z,89.40
2018-08-13T14:55:11.485Z,88.20
2018-08-13T14:57:39.448Z,88.30
2018-08-13T15:00:15.188Z,88.00
2018-08-13T15:02:43.032Z,86.50
2018-08-13T15:05:11.031Z,87.50
2018-08-13T15:07:38.878Z,87.40
2018-08-13T15:10:13.988Z,86.80
2018-08-13T15:12:45.223Z,86.20
2018-08-13T15:15:13.287Z,86.30
2018-08-13T15:17:41.387Z,87.40
2018-08-13T15:20:17.175Z,87.00
2018-08-13T15:22:45.087Z,86.60
2018-08-13T15:25:13.080Z,85.40
2018-08-13T15:27:40.904Z,86.10
2018-08-13T15:30:12.952Z,85.30
2018-08-13T15:32:41.386Z,83.90
2018-08-13T15:35:09.418Z,82.60
2018-08-13T15:37:37.261Z,83.30
2018-08-13T15:40:06.747Z,82.50
2018-08-13T15:42:35.159Z,82.50
2018-08-13T15:45:03.815Z,82.40
2018-08-13T15:47:31.698Z,82.40
2018-08-13T15:49:59.495Z,80.60
2018-08-13T15:52:27.339Z,81.00
2018-08-13T15:54:55.107Z,80.30
2018-08-13T15:57:22.964Z,81.50
2018-08-13T15:59:50.892Z,80.60
2018-08-13T16:02:18.702Z,80.50
2018-08-13T16:04:46.561Z,79.30
2018-08-13T16:07:14.442Z,81.10
2018-08-13T16:09:42.307Z,78.60
2018-08-13T16:12:10.304Z,78.30
2018-08-13T16:14:38.359Z,79.10
2018-08-13T16:17:06.472Z,78.30
2018-08-13T16:19:34.561Z,77.60
2018-08-13T16:22:02.509Z,76.30
2018-08-13T16:24:30.375Z,76.10
2018-08-13T16:26:58.206Z,75.80
2018-08-13T16:29:26.037Z,76.70
2018-08-13T16:31:53.915Z,74.90
2018-08-13T16:34:21.775Z,75.30
2018-08-13T16:36:49.649Z,75.50
2018-08-13T16:39:17.544Z,75.30
2018-08-13T16:41:45.344Z,76.20
2018-08-13T16:44:13.087Z,75.60
2018-08-13T16:46:40.883Z,76.20
2018-08-13T16:49:08.783Z,76.10
2018-08-13T16:51:36.634Z,77.50
2018-08-13T16:54:04.656Z,76.30
2018-08-13T16:56:32.499Z,76.60
2018-08-13T16:59:00.267Z,77.00
2018-08-13T17:01:28.267Z,77.60
2018-08-13T17:03:56.143Z,77.50
2018-08-13T17:06:23.955Z,77.80
2018-08-13T17:08:51.908Z,78.30
2018-08-13T17:11:19.970Z,78.50
2018-08-13T17:13:47.934Z,78.40
2018-08-13T17:16:16.048Z,79.30
2018-08-13T17:18:43.851Z,79.70
2018-08-13T17:21:11.736Z,80.10
2018-08-13T17:23:39.619Z,80.10
2018-08-13T17:26:07.460Z,80.20
2018-08-13T17:28:35.265Z,80.30
2018-08-13T17:31:03.147Z,81.10
2018-08-13T17:33:31.020Z,80.90
2018-08-13T17:35:58.835Z,81.10
2018-08-13T17:38:26.710Z,81.20
2018-08-13T17:40:54.519Z,81.10
2018-08-13T17:43:22.352Z,81.30
2018-08-13T17:45:50.360Z,83.10
2018-08-13T17:48:18.123Z,82.80
2018-08-13T17:50:45.954Z,84.00
2018-08-13T17:53:13.787Z,84.20
2018-08-13T17:55:41.604Z,84.70
2018-08-13T17:58:09.406Z,85.30
2018-08-13T18:00:37.203Z,84.30
2018-08-13T18:03:05.302Z,84.80
2018-08-13T18:05:33.271Z,85.40
2018-08-13T18:08:01.191Z,85.20
2018-08-13T18:10:31.240Z,86.60
2018-08-13T18:13:00.974Z,86.80
2018-08-13T18:15:29.243Z,85.00
2018-08-13T18:17:57.216Z,85.60
2018-08-13T18:20:25.147Z,85.80
2018-08-13T18:22:53.329Z,86.00
2018-08-13T18:25:21.408Z,86.70
2018-08-13T18:27:50.271Z,86.90
2018-08-13T18:30:22.782Z,87.70
2018-08-13T18:32:51.137Z,86.90
2018-08-13T18:35:19.349Z,86.50
2018-08-13T18:37:47.568Z,87.30
2018-08-13T18:40:27.938Z,88.00
2018-08-13T18:42:55.839Z,84.50
2018-08-13T18:45:23.655Z,84.10
2018-08-13T18:47:51.912Z,83.10
2018-08-13T18:50:21.165Z,82.80
2018-08-13T18:52:49.419Z,83.80
2018-08-13T18:55:20.584Z,85.40
2018-08-13T18:57:49.015Z,86.30
2018-08-13T19:00:23.960Z,85.10
2018-08-13T19:02:51.931Z,85.60
2018-08-13T19:05:20.737Z,85.40
2018-08-13T19:07:49.934Z,86.40
2018-08-13T19:10:18.575Z,87.00
2018-08-13T19:12:46.479Z,86.90
2018-08-13T19:15:16.635Z,87.10
2018-08-13T19:17:44.479Z,86.90
2018-08-13T19:20:13.083Z,86.80
2018-08-13T19:22:41.063Z,86.50
2018-08-13T19:25:12.913Z,86.60
2018-08-13T19:27:40.937Z,86.50
2018-08-13T19:30:11.272Z,86.50
2018-08-13T19:32:39.238Z,86.30
2018-08-13T19:35:08.236Z,85.40
2018-08-13T19:37:36.135Z,85.30
2018-08-13T19:40:07.583Z,84.10
2018-08-13T19:42:35.468Z,83.90
2018-08-13T19:45:05.407Z,83.90
2018-08-13T19:47:33.282Z,84.60
2018-08-13T19:50:01.672Z,84.10
2018-08-13T19:52:29.630Z,84.70
2018-08-13T19:54:57.415Z,83.70
2018-08-13T19:57:25.520Z,83.70
2018-08-13T19:59:54.036Z,85.00
2018-08-13T20:02:21.887Z,86.10
2018-08-13T20:04:49.752Z,85.90
2018-08-13T20:07:17.840Z,85.90
2018-08-13T20:09:45.708Z,87.30
2018-08-13T20:12:13.471Z,86.80
2018-08-13T20:14:41.288Z,86.80
2018-08-13T20:17:09.119Z,85.90
2018-08-13T20:19:37.022Z,87.00
2018-08-13T20:22:10.076Z,86.00
2018-08-13T20:24:37.943Z,86.80
2018-08-13T20:27:05.974Z,86.70
2018-08-13T20:29:33.879Z,87.90
2018-08-13T20:32:01.827Z,87.20
2018-08-13T20:34:29.715Z,86.90
2018-08-13T20:36:57.698Z,88.00
2018-08-13T20:39:25.775Z,88.00
2018-08-13T20:41:53.742Z,89.40
2018-08-13T20:44:21.576Z,89.20
2018-08-13T20:46:49.461Z,88.10
2018-08-13T20:49:17.337Z,88.40
2018-08-13T20:51:45.063Z,89.20
2018-08-13T20:54:13.167Z,89.00
2018-08-13T20:56:41.196Z,89.20
2018-08-13T20:59:09.149Z,90.20
2018-08-13T21:01:37.059Z,88.30
2018-08-13T21:04:06.601Z,90.20
2018-08-13T21:06:34.433Z,90.70
2018-08-13T21:09:04.452Z,90.00
2018-08-13T21:11:32.231Z,90.30
2018-08-13T21:14:00.125Z,89.50
2018-08-13T21:16:27.963Z,90.70
2018-08-13T21:18:55.879Z,90.90
2018-08-13T21:21:23.782Z,89.60
2018-08-13T21:23:51.762Z,91.00
2018-08-13T21:26:20.183Z,91.40
2018-08-13T21:28:47.968Z,91.30
2018-08-13T21:31:16.142Z,90.60
2018-08-13T21:33:43.933Z,91.50
2018-08-13T21:36:18.037Z,90.80
2018-08-13T21:38:48.920Z,91.00
2018-08-13T21:41:20.375Z,91.80
2018-08-13T21:43:53.429Z,90.70
2018-08-13T21:46:21.331Z,92.20
2018-08-13T21:48:49.691Z,93.00
2018-08-13T21:51:17.632Z,91.10
2018-08-13T21:53:45.551Z,90.60
2018-08-13T21:56:13.348Z,92.40
2018-08-13T21:58:42.292Z,91.10
2018-08-13T22:01:16.099Z,92.00
2018-08-13T22:03:44.090Z,91.00
2018-08-13T22:06:12.749Z,90.80
2018-08-13T22:08:40.607Z,92.20
2018-08-13T22:11:09.051Z,92.20
2018-08-13T22:13:36.991Z,91.60
2018-08-13T22:16:05.032Z,91.90
2018-08-13T22:18:32.857Z,92.00
2018-08-13T22:21:01.634Z,92.60
2018-08-13T22:23:29.715Z,91.00
2018-08-13T22:26:00.802Z,92.20
2018-08-13T22:28:31.692Z,91.00
2018-08-13T22:31:06.065Z,92.70
2018-08-13T22:33:34.100Z,91.80
2018-08-13T22:36:02.081Z,92.50
2018-08-13T22:38:30.044Z,92.90
2018-08-13T22:40:58.279Z,92.20
2018-08-13T22:43:26.201Z,91.90
2018-08-13T22:45:54.075Z,92.90
2018-08-13T22:48:21.930Z,93.20
2018-08-13T22:50:49.696Z,92.40
2018-08-13T22:53:18.680Z,93.50
2018-08-13T22:55:46.556Z,93.70
2018-08-13T22:58:14.401Z,92.60
2018-08-13T23:00:42.249Z,93.20
2018-08-13T23:03:10.173Z,91.70
2018-08-13T23:05:38.165Z,92.90
2018-08-13T23:08:06.572Z,93.60
2018-08-13T23:10:34.392Z,92.90
2018-08-13T23:13:02.316Z,93.30
2018-08-13T23:15:30.154Z,93.30
2018-08-13T23:17:58.000Z,93.60
2018-08-13T23:20:27.913Z,92.80
2018-08-13T23:22:57.883Z,93.30
2018-08-13T23:25:26.208Z,92.50
2018-08-13T23:27:55.187Z,92.30
2018-08-13T23:30:23.180Z,92.30
2018-08-13T23:32:52.242Z,92.40
2018-08-13T23:35:20.851Z,94.10
2018-08-13T23:37:49.043Z,93.90
2018-08-13T23:40:17.116Z,93.50
2018-08-13T23:42:45.075Z,94.30
2018-08-13T23:45:15.792Z,93.80
2018-08-13T23:47:43.649Z,92.80
2018-08-13T23:50:17.116Z,93.90
2018-08-13T23:52:45.116Z,94.70
2018-08-13T23:55:23.682Z,95.10
2018-08-13T23:57:51.532Z,95.10
